Time;durP1;ratioP1;P1;durP2;ratioP2;P2;SDS_P1;SDS_P2;PMS_P1;PMS_P2;Temp;Humidity;BMP_temperature;BMP_pressure;BME280_temperature;BME280_humidity;BME280_pressure;Samples;Min_cycle;Max_cycle;Signal;HPM_P1;HPM_P2
2022/06/23 00:02:08;;;;;;;9.25;5.42;;;;;;;12.62;74.24;98778.01;4353239;79;21068;-83
2022/06/23 00:08:30;;;;;;;8.50;5.22;;;;;;;12.50;74.83;98780.55;4354685;80;21055;-81
2022/06/23 00:14:32;;;;;;;11.28;5.67;;;;;;;12.51;75.12;98782.72;4380308;79;21020;-82
2022/06/23 00:20:40;;;;;;;8.30;5.20;;;;;;;12.38;75.45;98776.83;4397617;79;21102;-82
2022/06/23 00:26:43;;;;;;;15.68;5.95;;;;;;;12.26;74.98;98774.45;4377404;79;21027;-82
2022/06/23 00:32:45;;;;;;;9.70;4.75;;;;;;;12.06;75.41;98777.95;4361647;80;21064;-82
2022/06/23 00:38:46;;;;;;;10.40;5.60;;;;;;;12.13;76.40;98773.86;4361664;79;21563;-81
2022/06/23 00:45:08;;;;;;;12.80;6.67;;;;;;;12.17;76.67;98771.31;4377687;79;21149;-85
2022/06/23 00:51:30;;;;;;;8.80;5.53;;;;;;;12.11;76.78;98778.36;4354495;80;21627;-83
2022/06/23 00:57:50;;;;;;;6.97;4.92;;;;;;;12.19;77.25;98779.95;4263404;81;21083;-82
2022/06/23 01:04:27;;;;;;;11.40;5.75;;;;;;;12.04;77.16;98772.85;4188718;83;21643;-82
2022/06/23 01:11:04;;;;;;;8.90;4.80;;;;;;;11.90;77.44;98770.69;4228608;82;21039;-81
2022/06/23 01:17:26;;;;;;;9.65;4.75;;;;;;;11.77;77.99;98770.84;4388559;79;21035;-81
2022/06/23 01:23:47;;;;;;;11.85;4.60;;;;;;;11.83;78.36;98783.00;4362407;80;21067;-81
2022/06/23 01:29:59;;;;;;;10.75;4.80;;;;;;;11.74;78.82;98780.64;4371929;79;20993;-82
2022/06/23 01:36:28;;;;;;;10.35;5.17;;;;;;;11.65;78.60;98782.17;4395560;79;20969;-81
2022/06/23 01:42:38;;;;;;;7.70;4.33;;;;;;;11.53;79.17;98786.59;4387893;79;21070;-82
2022/06/23 01:49:14;;;;;;;12.00;4.80;;;;;;;11.66;79.94;98790.02;4371298;79;21097;-82
2022/06/23 01:55:28;;;;;;;8.20;4.78;;;;;;;11.73;79.80;98793.38;4360649;80;21944;-81
2022/06/23 02:02:09;;;;;;;10.88;5.40;;;;;;;11.65;79.85;98795.89;4380029;79;21630;-81
2022/06/23 02:08:34;;;;;;;11.12;6.08;;;;;;;11.43;79.66;98802.42;4381414;79;21013;-81
2022/06/23 02:15:04;;;;;;;11.28;6.00;;;;;;;11.34;80.26;98806.10;4377493;78;21832;-81
2022/06/23 02:21:50;;;;;;;9.10;5.75;;;;;;;11.24;80.41;98820.52;4374185;79;21036;-84
2022/06/23 02:28:25;;;;;;;9.95;5.55;;;;;;;11.10;80.65;98825.34;4253655;79;20982;-84
2022/06/23 02:35:08;;;;;;;9.23;6.37;;;;;;;11.02;80.90;98825.86;4377935;79;21508;-81
2022/06/23 02:41:19;;;;;;;12.40;5.37;;;;;;;10.94;81.18;98836.59;4368630;79;21636;-81
2022/06/23 02:55:15;;;;;;;15.13;6.75;;;;;;;10.74;81.61;98848.93;4375492;79;21511;-81
2022/06/23 03:01:37;;;;;;;12.58;6.20;;;;;;;10.69;81.88;98852.61;4368445;79;21008;-81
2022/06/23 03:07:57;;;;;;;10.43;6.92;;;;;;;10.56;81.96;98854.85;4367693;79;21083;-81
2022/06/23 03:14:00;;;;;;;10.28;6.37;;;;;;;10.54;82.46;98861.88;4376265;79;21631;-81
2022/06/23 03:20:46;;;;;;;10.80;6.08;;;;;;;10.53;82.65;98872.60;4386331;80;21084;-81
2022/06/23 03:27:08;;;;;;;6.20;5.15;;;;;;;10.47;82.87;98873.55;4379900;78;21036;-81
2022/06/23 03:33:29;;;;;;;7.62;4.87;;;;;;;10.49;83.32;98882.74;4383165;79;21498;-81
2022/06/23 03:46:43;;;;;;;5.72;4.17;;;;;;;10.81;84.49;98891.44;4385469;79;20987;-81
2022/06/23 03:52:58;;;;;;;8.90;5.03;;;;;;;11.18;84.43;98898.77;4262641;81;21067;-81
2022/06/23 03:59:20;;;;;;;7.08;4.70;;;;;;;11.27;84.42;98895.11;4279233;81;21484;-81
2022/06/23 04:05:29;;;;;;;5.80;3.87;;;;;;;11.50;84.61;98895.06;4288480;81;21571;-81
2022/06/23 04:11:54;;;;;;;7.42;4.62;;;;;;;11.72;84.63;98903.63;4279422;80;21049;-81
2022/06/23 04:18:09;;;;;;;8.53;5.17;;;;;;;11.97;84.48;98909.22;4287862;81;20979;-81
2022/06/23 04:24:21;;;;;;;8.33;5.03;;;;;;;12.13;84.49;98916.55;4288573;81;21069;-81
2022/06/23 04:30:35;;;;;;;9.93;5.08;;;;;;;12.27;84.35;98916.02;4292872;81;21057;-82
2022/06/23 04:36:43;;;;;;;9.40;5.92;;;;;;;12.42;84.17;98926.42;4281766;81;21029;-81
2022/06/23 04:42:57;;;;;;;10.23;6.65;;;;;;;12.61;84.08;98934.31;4208527;83;21086;-81
2022/06/23 04:49:05;;;;;;;11.15;6.50;;;;;;;12.76;83.87;98934.55;4238173;82;21062;-81
2022/06/23 04:55:24;;;;;;;12.30;7.42;;;;;;;12.90;83.84;98942.02;4236077;82;21127;-81
2022/06/23 05:01:33;;;;;;;8.58;6.20;;;;;;;13.05;83.91;98954.03;4236624;82;21008;-82
2022/06/23 05:08:05;;;;;;;11.12;6.70;;;;;;;13.22;84.04;98954.62;4291020;81;20986;-81
2022/06/23 05:14:18;;;;;;;13.32;7.53;;;;;;;13.39;84.04;98953.83;4282757;81;20991;-82
2022/06/23 05:20:34;;;;;;;11.48;5.17;;;;;;;13.60;84.06;98956.56;4268037;82;21063;-82
2022/06/23 05:26:44;;;;;;;11.43;5.37;;;;;;;13.83;84.22;98962.40;4229390;81;21018;-81
2022/06/23 05:33:04;;;;;;;9.48;5.25;;;;;;;14.11;84.17;98964.27;4293092;81;21048;-82
2022/06/23 05:39:18;;;;;;;6.85;4.67;;;;;;;14.43;84.16;98970.48;4286611;81;21007;-84
2022/06/23 05:45:43;;;;;;;9.53;4.30;;;;;;;14.76;83.93;98980.92;4284998;81;21094;-84
2022/06/23 05:51:55;;;;;;;8.40;3.25;;;;;;;15.04;83.60;98989.02;4239321;82;21131;-82
2022/06/23 05:58:25;;;;;;;6.05;3.17;;;;;;;15.32;82.75;98994.91;4241561;82;20984;-82
2022/06/23 06:04:44;;;;;;;10.93;4.30;;;;;;;15.55;81.99;98995.92;4233819;82;21451;-83
2022/06/23 06:10:49;;;;;;;10.63;5.00;;;;;;;15.79;81.33;98989.98;4392510;79;21250;-83
2022/06/23 06:16:56;;;;;;;9.18;4.75;;;;;;;16.03;80.56;99003.35;4387267;79;21007;-83
2022/06/23 06:23:18;;;;;;;8.75;4.70;;;;;;;16.28;79.96;99008.80;4370714;79;21461;-82
2022/06/23 06:29:26;;;;;;;8.70;4.62;;;;;;;16.54;79.49;99009.48;4359447;79;21592;-84
2022/06/23 06:35:40;;;;;;;14.63;7.55;;;;;;;16.83;78.73;99013.46;4387772;79;20956;-83
2022/06/23 06:41:49;;;;;;;19.65;9.63;;;;;;;17.14;78.41;99010.84;4370444;79;21100;-84
2022/06/23 06:47:51;;;;;;;15.55;7.60;;;;;;;17.49;77.04;99012.89;4389186;79;20986;-83
2022/06/23 06:54:04;;;;;;;17.05;9.00;;;;;;;17.95;76.71;99021.17;4382451;80;21043;-83
2022/06/23 07:00:14;;;;;;;17.05;8.68;;;;;;;18.49;76.12;99020.58;4371298;79;21075;-83
2022/06/23 07:06:46;;;;;;;14.03;6.92;;;;;;;19.22;75.65;99022.14;4380519;79;21043;-83
2022/06/23 07:12:58;;;;;;;14.18;5.85;;;;;;;19.94;74.79;99034.07;4373432;79;21049;-84
2022/06/23 07:19:08;;;;;;;7.90;4.50;;;;;;;20.78;73.42;99032.98;4395703;79;22404;-84
2022/06/23 07:25:19;;;;;;;9.15;4.42;;;;;;;21.30;65.89;99045.31;4356703;80;21010;-85
2022/06/23 07:31:31;;;;;;;6.10;2.40;;;;;;;22.04;67.71;99035.94;4381245;78;20960;-84
2022/06/23 07:37:41;;;;;;;9.00;3.90;;;;;;;22.63;65.95;99052.56;4273274;81;22352;-84
2022/06/23 07:43:51;;;;;;;5.67;2.20;;;;;;;22.60;62.05;99054.88;4287991;81;21072;-85
2022/06/23 07:49:52;;;;;;;3.92;2.10;;;;;;;22.96;57.56;99051.53;4377197;80;21079;-85
2022/06/23 07:55:53;;;;;;;4.65;1.82;;;;;;;23.13;58.38;99056.45;4362545;80;21035;-84
2022/06/23 08:02:11;;;;;;;3.72;1.40;;;;;;;23.35;58.59;99051.47;4363448;79;21779;-85
2022/06/23 08:08:22;;;;;;;7.87;2.05;;;;;;;23.40;56.49;99057.86;4356602;79;21106;-83
2022/06/23 08:14:35;;;;;;;6.00;1.85;;;;;;;23.35;55.02;99058.45;4374966;79;22007;-85
2022/06/23 08:20:41;;;;;;;2.33;1.27;;;;;;;23.55;55.15;99052.64;4371659;79;21034;-86
2022/06/23 08:26:47;;;;;;;5.10;1.70;;;;;;;23.72;53.87;99051.75;4370024;78;20992;-85
2022/06/23 08:32:51;;;;;;;2.20;1.50;;;;;;;23.90;53.57;99051.81;4399553;79;21046;-85
2022/06/23 08:39:07;;;;;;;6.10;2.02;;;;;;;23.82;51.48;99054.74;4377006;79;21496;-84
2022/06/23 08:45:34;;;;;;;2.67;1.70;;;;;;;24.03;50.83;99062.26;4381717;79;21019;-84
2022/06/23 08:52:17;;;;;;;7.83;1.92;;;;;;;23.60;50.66;99061.80;4385185;79;21049;-85
2022/06/23 08:58:50;;;;;;;6.47;1.67;;;;;;;23.76;48.66;99052.41;4362587;78;21007;-84
2022/06/23 09:05:42;;;;;;;3.85;1.40;;;;;;;23.83;49.66;99056.28;4377146;79;21025;-83
2022/06/23 09:12:15;;;;;;;2.60;1.25;;;;;;;23.83;49.38;99054.28;4377945;79;20995;-85
2022/06/23 09:18:49;;;;;;;4.22;1.30;;;;;;;24.04;48.29;99057.59;4386619;79;21030;-85
2022/06/23 09:25:13;;;;;;;3.62;1.30;;;;;;;24.62;46.63;99037.88;4371243;79;21000;-84
2022/06/23 09:31:42;;;;;;;2.15;1.47;;;;;;;25.27;45.47;99059.09;4357778;79;20991;-84
2022/06/23 09:38:14;;;;;;;4.45;1.50;;;;;;;25.27;45.47;99059.09;4357902;79;21076;-85
2022/06/23 09:44:33;;;;;;;1.50;1.07;;;;;;;25.62;45.07;99069.25;4380301;79;20984;-86
2022/06/23 09:51:18;;;;;;;3.60;1.20;;;;;;;25.78;41.91;99057.02;4366623;79;21092;-86
2022/06/23 09:57:42;;;;;;;2.90;1.20;;;;;;;25.67;42.33;99055.97;4365011;79;21096;-84
2022/06/23 10:04:06;;;;;;;3.58;1.30;;;;;;;25.43;42.91;99060.77;4372395;79;21035;-84
2022/06/23 10:10:44;;;;;;;1.82;1.20;;;;;;;24.91;42.74;99061.98;4382428;79;21126;-85
2022/06/23 10:17:26;;;;;;;2.98;1.17;;;;;;;25.40;41.97;99056.87;4369486;79;21008;-86
2022/06/23 10:23:59;;;;;;;2.58;1.00;;;;;;;25.57;40.98;99057.28;4379931;79;21595;-84
2022/06/23 10:30:30;;;;;;;2.70;1.25;;;;;;;25.08;42.26;99058.20;4353950;79;21043;-85
2022/06/23 10:36:48;;;;;;;4.75;1.20;;;;;;;26.19;41.87;99053.98;4369117;79;21018;-86
2022/06/23 10:42:58;;;;;;;2.87;1.42;;;;;;;26.81;41.02;99044.89;4271509;81;21575;-85
2022/06/23 10:49:26;;;;;;;3.47;1.20;;;;;;;26.92;40.27;99060.54;4273074;81;21035;-85
2022/06/23 10:56:04;;;;;;;1.65;1.20;;;;;;;27.40;39.96;99054.90;4294054;80;20997;-86
2022/06/23 11:02:58;;;;;;;2.22;1.35;;;;;;;27.54;38.96;99054.10;4289480;81;21013;-85
2022/06/23 11:09:34;;;;;;;5.90;1.35;;;;;;;27.21;39.28;99052.12;4282323;81;21042;-86
2022/06/23 11:16:26;;;;;;;1.82;1.10;;;;;;;27.67;39.16;99053.78;4291298;81;21052;-85
2022/06/23 11:22:56;;;;;;;3.72;1.32;;;;;;;28.05;37.40;99041.55;4260889;81;20962;-85
2022/06/23 11:29:37;;;;;;;2.98;1.20;;;;;;;28.64;36.33;99034.36;4395353;79;21025;-86
2022/06/23 11:36:22;;;;;;;3.90;1.30;;;;;;;29.12;36.69;99026.91;4387321;79;20990;-85
2022/06/23 11:43:22;;;;;;;2.25;1.20;;;;;;;29.54;35.63;99029.80;4241890;82;21031;-86
2022/06/23 11:49:51;;;;;;;1.35;0.85;;;;;;;29.46;35.75;99030.12;4246860;82;21020;-85
2022/06/23 11:56:01;;;;;;;1.55;1.10;;;;;;;29.76;35.37;99026.37;4250649;82;21542;-86
2022/06/23 12:02:02;;;;;;;3.05;1.42;;;;;;;29.69;35.15;99017.77;4388140;79;21007;-86
2022/06/23 12:08:27;;;;;;;3.08;1.20;;;;;;;29.61;34.91;99015.23;4386846;78;21033;-86
2022/06/23 12:14:30;;;;;;;3.17;1.37;;;;;;;29.44;34.53;99013.58;4393179;79;20976;-86
2022/06/23 12:21:06;;;;;;;2.90;1.55;;;;;;;28.53;34.08;99022.34;4404589;79;21023;-85
2022/06/23 12:27:29;;;;;;;1.87;1.25;;;;;;;28.07;34.04;99015.87;4391970;79;20940;-86
2022/06/23 12:33:57;;;;;;;2.85;1.35;;;;;;;27.81;34.13;99012.17;4437277;79;20978;-86
2022/06/23 12:47:12;;;;;;;1.87;1.07;;;;;;;26.99;34.17;99006.80;4424212;79;21018;-85
2022/06/23 13:00:08;;;;;;;3.75;1.37;;;;;;;26.47;33.46;98992.81;4402084;79;21020;-85
2022/06/23 13:06:29;;;;;;;2.92;1.50;;;;;;;26.26;33.60;98995.32;4345823;79;20944;-85
2022/06/23 13:12:57;;;;;;;3.27;1.30;;;;;;;26.11;33.88;99005.09;4385241;79;21030;-85
2022/06/23 13:19:11;;;;;;;3.87;1.50;;;;;;;26.00;34.13;98997.84;4393754;79;20980;-86
2022/06/23 13:25:17;;;;;;;3.55;1.40;;;;;;;25.81;33.95;98994.37;4374014;79;21000;-85
2022/06/23 13:31:24;;;;;;;3.72;1.57;;;;;;;25.71;34.11;98992.11;4382938;79;21018;-85
2022/06/23 13:38:01;;;;;;;1.57;1.27;;;;;;;25.96;34.71;98989.61;4349693;79;21619;-86
2022/06/23 13:44:30;;;;;;;2.60;1.37;;;;;;;25.85;34.27;98994.20;4368295;78;21949;-85
2022/06/23 13:50:53;;;;;;;2.50;1.47;;;;;;;25.82;34.76;98990.33;4383648;79;21454;-85
2022/06/23 13:57:17;;;;;;;3.37;1.35;;;;;;;26.00;35.20;98988.03;4270054;81;21582;-84
2022/06/23 14:03:53;;;;;;;1.72;1.22;;;;;;;26.09;34.52;98978.17;4264052;81;21015;-85
2022/06/23 14:10:19;;;;;;;2.40;1.37;;;;;;;25.92;35.09;98986.81;4378439;79;20999;-85
2022/06/23 14:16:51;;;;;;;2.70;1.40;;;;;;;25.48;35.28;98986.63;4362815;79;21852;-85
2022/06/23 14:23:07;;;;;;;3.75;1.40;;;;;;;25.30;35.58;98989.50;4292663;80;21031;-84
2022/06/23 14:29:28;;;;;;;3.90;1.40;;;;;;;25.05;35.35;98985.70;4244049;81;21634;-85
2022/06/23 14:35:50;;;;;;;2.47;1.45;;;;;;;24.91;36.73;98979.37;4391611;78;22222;-85
2022/06/23 14:42:36;;;;;;;2.65;1.52;;;;;;;24.91;36.73;98979.37;4408825;79;21013;-85
2022/06/23 14:56:02;;;;;;;2.72;1.60;;;;;;;25.27;35.85;98979.24;4395384;79;20975;-87
2022/06/23 15:02:39;;;;;;;5.50;1.40;;;;;;;25.36;36.22;98970.03;4345821;78;21904;-85
2022/06/23 15:09:15;;;;;;;5.28;1.75;;;;;;;25.30;36.51;98945.28;4393220;79;21908;-85
2022/06/23 15:15:39;;;;;;;3.00;1.82;;;;;;;25.44;36.17;98968.44;4396589;79;21038;-85
2022/06/23 15:28:39;;;;;;;3.17;1.42;;;;;;;25.02;36.43;98933.45;4354426;79;20952;-85
2022/06/23 15:34:51;;;;;;;2.92;1.30;;;;;;;25.02;36.43;98933.45;4384383;79;21483;-86
2022/06/23 15:41:22;;;;;;;1.92;1.37;;;;;;;25.13;35.63;98951.91;4376522;79;21000;-85
2022/06/23 15:48:01;;;;;;;2.20;1.45;;;;;;;24.93;35.98;98951.70;4357936;79;21023;-86
2022/06/23 15:54:39;;;;;;;2.60;1.22;;;;;;;24.82;36.31;98952.03;4297890;80;21015;-85
2022/06/23 16:00:51;;;;;;;1.98;1.47;;;;;;;24.73;36.36;98951.42;4320684;79;21017;-85
2022/06/23 16:06:56;;;;;;;2.83;1.27;;;;;;;24.68;36.67;98945.84;4373174;79;21623;-86
2022/06/23 16:13:00;;;;;;;2.92;1.77;;;;;;;24.68;37.00;98955.64;4399566;78;20951;-85
2022/06/23 16:19:09;;;;;;;4.65;1.40;;;;;;;24.63;37.33;98956.23;4366140;79;20964;-85
2022/06/23 16:25:35;;;;;;;1.72;1.32;;;;;;;24.52;37.62;98950.99;4394717;79;20972;-85
2022/06/23 16:32:27;;;;;;;3.25;1.47;;;;;;;24.48;37.80;98946.95;4385710;79;20987;-85
2022/06/23 16:39:03;;;;;;;2.50;1.10;;;;;;;24.45;37.64;98953.48;4383037;79;21469;-85
2022/06/23 16:46:00;;;;;;;10.72;2.20;;;;;;;24.46;37.80;98948.68;4392452;79;21049;-84
2022/06/23 16:52:19;;;;;;;3.90;1.75;;;;;;;24.39;38.07;98946.19;4396317;79;20964;-85
2022/06/23 16:59:12;;;;;;;3.22;1.87;;;;;;;24.31;37.97;98944.34;4399641;79;21693;-84
2022/06/23 17:05:31;;;;;;;5.08;1.70;;;;;;;24.16;38.28;98946.84;4374189;79;21034;-85
2022/06/23 17:11:40;;;;;;;3.30;1.90;;;;;;;24.03;38.62;98947.00;4341665;79;21007;-83
2022/06/23 17:17:56;;;;;;;3.40;1.65;;;;;;;23.98;38.44;98946.22;4366674;79;21046;-85
2022/06/23 17:24:09;;;;;;;2.92;1.92;;;;;;;23.93;38.48;98946.05;4362851;79;21592;-85
2022/06/23 17:30:43;;;;;;;4.20;1.62;;;;;;;23.85;38.81;98947.59;4382221;79;21021;-85
2022/06/23 17:36:58;;;;;;;4.22;1.75;;;;;;;23.73;39.24;98941.51;4375585;79;20954;-85
2022/06/23 17:49:38;;;;;;;2.83;1.47;;;;;;;23.43;39.75;98959.17;4362027;79;21047;-85
2022/06/23 17:55:40;;;;;;;3.25;1.37;;;;;;;23.31;40.10;98956.64;4385757;79;21086;-84
2022/06/23 18:01:49;;;;;;;4.47;1.60;;;;;;;23.20;40.38;98959.84;4381443;78;20945;-85
2022/06/23 18:08:01;;;;;;;2.70;1.62;;;;;;;23.09;40.73;98953.91;4365900;79;20980;-84
2022/06/23 18:14:23;;;;;;;5.67;1.80;;;;;;;22.99;41.03;98964.11;4373052;79;21045;-85
2022/06/23 18:20:44;;;;;;;4.25;1.92;;;;;;;22.83;41.35;98969.28;4366401;79;21074;-85
2022/06/23 18:27:16;;;;;;;3.37;2.20;;;;;;;22.67;41.70;98976.50;4375787;79;21585;-84
2022/06/23 18:33:28;;;;;;;6.05;2.40;;;;;;;22.53;42.17;98974.85;4361347;79;21118;-84
2022/06/23 18:39:40;;;;;;;7.53;2.58;;;;;;;22.35;42.70;98990.81;4371047;80;21047;-83
2022/06/23 18:45:58;;;;;;;3.35;2.33;;;;;;;22.13;43.24;98991.41;4383976;79;21051;-85
2022/06/23 18:52:18;;;;;;;4.08;2.20;;;;;;;21.91;43.85;98994.77;4350203;78;21085;-82
2022/06/23 18:58:31;;;;;;;4.08;1.90;;;;;;;21.76;44.30;98997.09;4365788;79;20991;-84
2022/06/23 19:04:57;;;;;;;7.22;2.55;;;;;;;21.58;44.74;99001.23;4366976;79;20982;-84
2022/06/23 19:11:15;;;;;;;7.53;3.90;;;;;;;21.39;45.22;98998.70;4369290;79;20978;-84
2022/06/23 19:17:51;;;;;;;9.70;6.05;;;;;;;21.20;45.83;99010.25;4395154;79;20941;-84
2022/06/23 19:24:22;;;;;;;9.93;5.00;;;;;;;21.01;46.40;99019.58;4372968;79;21015;-83
2022/06/23 19:30:35;;;;;;;7.17;4.70;;;;;;;20.84;46.89;99028.42;4293909;80;20996;-84
2022/06/23 19:37:12;;;;;;;8.50;5.08;;;;;;;20.63;47.59;99031.21;4282220;81;20986;-84
2022/06/23 19:43:53;;;;;;;10.68;5.83;;;;;;;20.38;48.23;99034.52;4365882;79;21039;-84
2022/06/23 19:50:02;;;;;;;14.18;6.50;;;;;;;20.09;49.04;99031.08;4372313;79;21922;-84
2022/06/23 19:56:21;;;;;;;14.98;5.53;;;;;;;19.83;49.76;99029.99;4365858;79;20951;-84
2022/06/23 20:02:40;;;;;;;14.45;6.08;;;;;;;19.54;50.31;99027.77;4365039;79;20980;-83
2022/06/23 20:08:46;;;;;;;10.13;5.40;;;;;;;19.26;51.26;99027.81;4376357;79;21042;-84
2022/06/23 20:15:20;;;;;;;12.60;6.53;;;;;;;19.01;52.02;99022.64;4361917;79;21043;-82
2022/06/23 20:21:57;;;;;;;12.73;6.33;;;;;;;18.76;53.02;99020.41;4376068;78;20992;-84
2022/06/23 20:28:09;;;;;;;11.23;5.13;;;;;;;18.57;53.84;99023.35;4308982;79;21023;-84
2022/06/23 20:35:04;;;;;;;11.03;5.00;;;;;;;18.36;54.12;99019.61;4390205;79;21975;-83
2022/06/23 20:41:19;;;;;;;11.60;6.12;;;;;;;18.14;54.82;99027.36;4377550;79;20960;-83
2022/06/23 20:47:54;;;;;;;7.05;4.92;;;;;;;17.93;55.83;99027.77;4381204;79;21030;-84
2022/06/23 20:54:19;;;;;;;7.92;5.10;;;;;;;17.80;56.70;99024.82;4382984;79;20990;-84
2022/06/23 21:00:22;;;;;;;9.25;4.67;;;;;;;17.77;57.49;99026.26;4377443;78;20992;-84
2022/06/23 21:06:32;;;;;;;10.68;5.80;;;;;;;17.63;58.58;99023.73;4228360;82;21038;-84
2022/06/23 21:13:17;;;;;;;9.48;6.50;;;;;;;17.53;58.33;99020.52;4229300;82;21608;-84
2022/06/23 21:19:24;;;;;;;8.30;4.90;;;;;;;17.44;59.10;99021.63;4241417;82;21020;-84
2022/06/23 21:25:45;;;;;;;10.98;6.30;;;;;;;17.07;58.81;99027.52;4236502;82;20986;-83
2022/06/23 21:39:06;;;;;;;9.95;6.45;;;;;;;16.68;60.37;99025.89;4366294;80;20957;-83
2022/06/23 21:45:14;;;;;;;13.08;6.75;;;;;;;16.51;60.97;99021.95;4370951;79;21000;-82
2022/06/23 21:51:46;;;;;;;9.30;6.17;;;;;;;16.29;61.61;99018.64;4358882;79;21003;-83
2022/06/23 21:58:12;;;;;;;11.70;5.92;;;;;;;16.13;61.93;99017.66;4373006;79;20959;-83
2022/06/23 22:11:23;;;;;;;10.25;5.35;;;;;;;15.79;63.35;99021.73;4374586;79;21080;-83
2022/06/23 22:17:26;;;;;;;9.13;5.33;;;;;;;15.60;63.76;99026.42;4368515;79;20989;-83
2022/06/23 22:30:34;;;;;;;6.25;4.55;;;;;;;15.44;65.09;99024.81;4369414;80;21577;-84
2022/06/23 22:36:39;;;;;;;8.58;5.55;;;;;;;15.54;65.98;99029.44;4390936;79;21484;-84
2022/06/23 23:09:50;;;;;;;5.60;4.40;;;;;;;15.32;68.28;99038.45;4370760;79;21562;-83
2022/06/23 23:22:45;;;;;;;10.05;6.53;;;;;;;15.04;68.92;99042.77;4370480;79;21095;-83
2022/06/23 23:28:48;;;;;;;9.18;5.80;;;;;;;14.82;69.19;99044.08;4373694;80;21009;-82
2022/06/23 23:34:59;;;;;;;10.23;6.90;;;;;;;14.64;69.84;99047.52;4398536;79;21476;-83
2022/06/23 23:41:02;;;;;;;13.32;7.28;;;;;;;14.42;70.08;99042.48;4390162;79;21002;-83
2022/06/23 23:47:10;;;;;;;11.38;7.78;;;;;;;14.20;70.37;99040.36;4378622;80;20963;-83
2022/06/23 23:53:20;;;;;;;15.35;8.20;;;;;;;14.03;71.04;99032.94;4370198;79;21041;-83
2022/06/23 23:59:24;;;;;;;12.37;7.70;;;;;;;13.91;71.42;99028.62;4372581;79;21002;-83
